Time;durP1;ratioP1;P1;durP2;ratioP2;P2;SDS_P1;SDS_P2;PMS_P1;PMS_P2;Temp;Humidity;BMP_temperature;BMP_pressure;BME280_temperature;BME280_humidity;BME280_pressure;Samples;Min_cycle;Max_cycle;Signal;HPM_P1;HPM_P2
2021/07/17 00:01:47;;;;;;;14.38;10.50;;;23.90;98.60;;;;;;5046929;28;20481;-68
2021/07/17 00:04:33;;;;;;;14.05;10.80;;;23.90;98.70;;;;;;5050835;28;20036;-68
2021/07/17 00:07:19;;;;;;;13.93;10.07;;;23.90;98.60;;;;;;5048600;28;20031;-68
2021/07/17 00:10:12;;;;;;;12.35;10.13;;;23.90;98.60;;;;;;5031246;28;20381;-68
2021/07/17 00:12:57;;;;;;;17.85;10.07;;;23.90;98.60;;;;;;5036850;28;20492;-68
2021/07/17 00:15:44;;;;;;;12.32;9.50;;;23.90;98.50;;;;;;5050342;28;20032;-68
2021/07/17 00:18:30;;;;;;;12.43;10.10;;;23.90;98.50;;;;;;5046818;28;20037;-68
2021/07/17 00:21:16;;;;;;;13.25;12.02;;;23.90;98.50;;;;;;5049375;28;20025;-68
2021/07/17 00:24:02;;;;;;;12.65;10.23;;;23.80;98.40;;;;;;5048405;28;20408;-68
2021/07/17 00:26:48;;;;;;;12.50;10.88;;;23.80;98.50;;;;;;5049600;28;20025;-68
2021/07/17 00:29:34;;;;;;;13.35;9.40;;;23.80;98.40;;;;;;5048195;28;20036;-68
2021/07/17 00:32:20;;;;;;;11.93;9.50;;;23.80;98.50;;;;;;5049707;28;20029;-68
2021/07/17 00:35:06;;;;;;;12.75;9.85;;;23.90;98.40;;;;;;5050705;28;20025;-68
2021/07/17 00:37:52;;;;;;;11.07;9.43;;;23.80;98.40;;;;;;5044842;28;20045;-69
2021/07/17 00:40:38;;;;;;;10.43;9.20;;;23.80;98.40;;;;;;5030617;28;20448;-68
2021/07/17 00:43:24;;;;;;;18.50;9.57;;;23.90;98.30;;;;;;5037222;28;20065;-68
2021/07/17 00:46:10;;;;;;;15.02;10.52;;;23.80;98.30;;;;;;5035042;28;20045;-68
2021/07/17 00:48:56;;;;;;;12.30;10.52;;;23.80;98.30;;;;;;5048616;28;20033;-68
2021/07/17 00:51:42;;;;;;;13.02;9.77;;;23.80;98.30;;;;;;5049331;28;20032;-68
2021/07/17 00:54:19;;;;;;;13.57;9.43;;;23.70;98.20;;;;;;5048622;28;20492;-68
2021/07/17 00:57:05;;;;;;;11.65;8.80;;;23.70;98.20;;;;;;5049996;28;20032;-68
2021/07/17 00:59:50;;;;;;;17.38;9.82;;;23.70;98.20;;;;;;5030971;28;20126;-68
2021/07/17 01:02:42;;;;;;;12.32;9.45;;;23.70;98.20;;;;;;5034145;28;20118;-68
2021/07/17 01:05:26;;;;;;;17.58;9.38;;;23.60;98.20;;;;;;5050651;28;20058;-68
2021/07/17 01:08:11;;;;;;;12.52;10.00;;;23.70;98.20;;;;;;5049708;28;20404;-68
2021/07/17 01:10:55;;;;;;;13.20;8.70;;;23.70;98.10;;;;;;5050544;28;20554;-68
2021/07/17 01:13:39;;;;;;;10.90;8.80;;;23.60;98.10;;;;;;5033755;28;20090;-68
2021/07/17 01:16:22;;;;;;;12.70;8.95;;;23.60;98.00;;;;;;5052784;28;20048;-68
2021/07/17 01:19:11;;;;;;;13.30;9.20;;;23.60;98.00;;;;;;5038234;28;20107;-68
2021/07/17 01:21:55;;;;;;;12.68;8.98;;;23.60;98.00;;;;;;5034047;28;20040;-68
2021/07/17 01:24:42;;;;;;;11.32;8.27;;;23.70;97.90;;;;;;5034347;28;20080;-68
2021/07/17 01:27:26;;;;;;;10.10;8.70;;;23.70;97.90;;;;;;5036520;28;20042;-68
2021/07/17 01:30:19;;;;;;;9.52;8.10;;;23.70;97.80;;;;;;5053905;28;20044;-68
2021/07/17 01:33:06;;;;;;;12.63;8.52;;;23.60;97.80;;;;;;5045841;28;20101;-68
2021/07/17 01:35:52;;;;;;;11.95;9.25;;;23.60;97.70;;;;;;5034327;28;20103;-68
2021/07/17 01:38:36;;;;;;;13.70;8.98;;;23.60;97.70;;;;;;5046017;28;20417;-68
2021/07/17 01:41:20;;;;;;;14.32;9.10;;;23.60;97.70;;;;;;5053990;28;20071;-68
2021/07/17 01:44:06;;;;;;;11.23;9.00;;;23.60;97.70;;;;;;5047609;28;20385;-68
2021/07/17 01:46:50;;;;;;;11.10;7.93;;;23.60;97.80;;;;;;5042657;28;20095;-67
2021/07/17 01:49:50;;;;;;;16.17;8.43;;;23.60;97.70;;;;;;5053011;28;20798;-67
2021/07/17 01:52:34;;;;;;;13.45;8.77;;;23.50;97.80;;;;;;5040827;28;20392;-66
2021/07/17 01:55:18;;;;;;;11.95;9.43;;;23.50;97.80;;;;;;5036352;28;20120;-66
2021/07/17 01:58:07;;;;;;;14.38;10.13;;;23.50;97.80;;;;;;5038051;28;20123;-67
2021/07/17 02:00:51;;;;;;;10.23;8.30;;;23.50;97.80;;;;;;5038586;28;20047;-67
2021/07/17 02:03:36;;;;;;;12.95;8.88;;;23.50;97.80;;;;;;5038505;28;20086;-67
2021/07/17 02:06:25;;;;;;;10.48;8.13;;;23.50;97.80;;;;;;5038715;28;20039;-67
2021/07/17 02:09:10;;;;;;;11.98;8.77;;;23.50;97.80;;;;;;5037901;28;20068;-69
2021/07/17 02:11:54;;;;;;;11.13;7.80;;;23.50;97.90;;;;;;5039250;28;20028;-69
2021/07/17 02:14:39;;;;;;;14.98;8.55;;;23.50;97.90;;;;;;5037802;28;20214;-68
2021/07/17 02:17:24;;;;;;;12.20;8.75;;;23.50;97.90;;;;;;5036597;28;20043;-68
2021/07/17 02:20:08;;;;;;;12.07;7.85;;;23.50;97.80;;;;;;5037360;28;20090;-69
2021/07/17 02:22:52;;;;;;;11.25;8.32;;;23.50;97.80;;;;;;5023183;28;20044;-70
2021/07/17 02:25:36;;;;;;;11.57;8.38;;;23.50;97.90;;;;;;5013892;28;20121;-69
2021/07/17 02:28:21;;;;;;;11.68;8.77;;;23.50;97.90;;;;;;5009436;28;20056;-69
2021/07/17 02:31:06;;;;;;;13.90;8.93;;;23.40;97.90;;;;;;5014603;28;20068;-68
2021/07/17 02:33:50;;;;;;;12.90;9.15;;;23.40;98.00;;;;;;5012619;28;20087;-68
2021/07/17 02:36:35;;;;;;;9.43;7.95;;;23.40;98.00;;;;;;5013286;28;20064;-68
2021/07/17 02:39:19;;;;;;;10.13;8.15;;;23.40;97.90;;;;;;5009920;28;20144;-68
2021/07/17 02:42:03;;;;;;;9.95;7.35;;;23.30;97.70;;;;;;5012227;28;20056;-68
2021/07/17 02:44:49;;;;;;;11.32;8.27;;;23.30;97.70;;;;;;5012372;28;20104;-68
2021/07/17 02:47:34;;;;;;;11.77;8.00;;;23.30;97.80;;;;;;5012966;28;20087;-69
2021/07/17 02:50:19;;;;;;;9.43;7.18;;;23.20;97.80;;;;;;5010306;28;20084;-69
2021/07/17 02:53:03;;;;;;;76.72;17.80;;;23.20;97.80;;;;;;5008919;28;20617;-69
2021/07/17 02:55:48;;;;;;;12.40;7.28;;;23.10;97.70;;;;;;5010873;28;20402;-69
2021/07/17 02:58:32;;;;;;;8.68;7.63;;;23.10;97.70;;;;;;5011978;28;20532;-69
2021/07/17 03:01:16;;;;;;;12.55;7.47;;;23.20;97.70;;;;;;4999217;28;20089;-69
2021/07/17 03:04:00;;;;;;;11.48;7.22;;;23.10;97.70;;;;;;5001729;28;20665;-70
2021/07/17 03:06:44;;;;;;;10.75;7.15;;;23.10;97.80;;;;;;5002267;28;20093;-69
2021/07/17 03:09:28;;;;;;;9.13;7.60;;;23.10;97.70;;;;;;5000370;28;20124;-69
2021/07/17 03:12:12;;;;;;;8.57;7.03;;;23.10;97.60;;;;;;5001239;28;20123;-70
2021/07/17 03:14:57;;;;;;;8.90;7.07;;;23.10;97.60;;;;;;4996673;28;20036;-70
2021/07/17 03:17:41;;;;;;;11.25;7.65;;;23.10;97.60;;;;;;5001830;28;20512;-69
2021/07/17 03:20:25;;;;;;;10.32;7.57;;;23.10;97.50;;;;;;5001015;28;20036;-69
2021/07/17 03:23:09;;;;;;;9.73;7.80;;;23.10;97.50;;;;;;5000793;28;20037;-69
2021/07/17 03:25:53;;;;;;;11.90;7.72;;;23.00;97.60;;;;;;5003007;28;20529;-69
2021/07/17 03:28:37;;;;;;;10.82;7.38;;;23.10;97.50;;;;;;5001201;28;20433;-69
2021/07/17 03:31:32;;;;;;;10.18;6.95;;;23.10;97.50;;;;;;4998457;28;20032;-69
2021/07/17 03:34:17;;;;;;;8.65;6.18;;;23.10;97.30;;;;;;4998298;28;20049;-69
2021/07/17 03:37:01;;;;;;;11.15;6.97;;;23.10;97.40;;;;;;4999424;28;20280;-69
2021/07/17 03:39:45;;;;;;;8.68;6.57;;;23.00;97.20;;;;;;4995659;28;20122;-69
2021/07/17 03:42:29;;;;;;;11.70;8.15;;;23.00;97.20;;;;;;4996957;28;20131;-69
2021/07/17 03:45:13;;;;;;;10.85;6.65;;;23.00;97.30;;;;;;5008339;28;20345;-69
2021/07/17 03:47:57;;;;;;;13.80;7.20;;;23.00;97.30;;;;;;5013281;28;20314;-69
2021/07/17 03:50:41;;;;;;;10.80;7.00;;;23.00;97.20;;;;;;5011490;28;20497;-69
2021/07/17 03:53:25;;;;;;;10.65;7.28;;;23.00;97.20;;;;;;5013644;28;20365;-69
2021/07/17 03:56:08;;;;;;;12.93;7.20;;;23.00;97.10;;;;;;5009174;28;20040;-69
2021/07/17 03:58:52;;;;;;;8.68;6.60;;;23.00;97.10;;;;;;5013486;28;20041;-69
2021/07/17 04:01:38;;;;;;;10.75;6.82;;;23.00;97.20;;;;;;5012939;28;20038;-69
2021/07/17 04:04:24;;;;;;;9.30;6.53;;;23.10;97.10;;;;;;5011305;28;20022;-69
2021/07/17 04:07:10;;;;;;;9.68;6.75;;;23.10;97.10;;;;;;5011470;28;20089;-69
2021/07/17 04:09:56;;;;;;;10.60;6.88;;;23.10;97.10;;;;;;5010358;28;20375;-69
2021/07/17 04:12:42;;;;;;;9.15;6.90;;;23.10;97.00;;;;;;5013107;28;20044;-69
2021/07/17 04:15:28;;;;;;;13.02;7.00;;;23.20;97.00;;;;;;5001875;28;20037;-69
2021/07/17 04:18:13;;;;;;;10.80;7.30;;;23.20;96.90;;;;;;4993605;28;20022;-68
2021/07/17 04:20:59;;;;;;;10.02;7.20;;;23.20;96.70;;;;;;5007776;28;20068;-69
2021/07/17 04:23:45;;;;;;;12.18;6.28;;;23.30;96.70;;;;;;5012294;28;20125;-73
2021/07/17 04:26:31;;;;;;;9.02;6.68;;;23.30;96.70;;;;;;5012002;28;20042;-69
2021/07/17 04:29:17;;;;;;;9.80;7.00;;;23.30;96.70;;;;;;5010238;28;20077;-72
2021/07/17 04:32:03;;;;;;;7.97;6.70;;;23.30;96.80;;;;;;5010827;28;20080;-72
2021/07/17 04:34:49;;;;;;;12.15;7.47;;;23.40;96.60;;;;;;5010849;28;20113;-71
2021/07/17 04:37:35;;;;;;;12.15;8.45;;;23.40;96.80;;;;;;5011146;28;20057;-76
2021/07/17 04:40:21;;;;;;;12.63;7.25;;;23.30;96.80;;;;;;5011339;28;20109;-71
2021/07/17 04:43:07;;;;;;;9.98;7.55;;;23.30;96.70;;;;;;4992712;28;20022;-71
2021/07/17 04:45:52;;;;;;;9.75;7.25;;;23.30;96.80;;;;;;5007133;28;20503;-71
2021/07/17 04:48:38;;;;;;;13.27;7.82;;;23.30;96.90;;;;;;5004443;28;20050;-72
2021/07/17 04:51:25;;;;;;;11.77;8.02;;;23.30;96.90;;;;;;5007274;28;20044;-71
2021/07/17 04:54:11;;;;;;;14.10;8.32;;;23.30;97.00;;;;;;5008774;28;20525;-72
2021/07/17 04:56:56;;;;;;;10.18;8.02;;;23.30;97.10;;;;;;5011911;28;20589;-71
2021/07/17 04:59:42;;;;;;;10.55;8.38;;;23.30;97.20;;;;;;5010100;28;20054;-72
2021/07/17 05:02:28;;;;;;;11.25;8.52;;;23.30;97.30;;;;;;5012509;28;20034;-72
2021/07/17 05:05:16;;;;;;;10.85;8.07;;;23.40;97.40;;;;;;5001050;28;20413;-71
2021/07/17 05:08:02;;;;;;;10.70;7.78;;;23.40;97.40;;;;;;5010543;28;20397;-72
2021/07/17 05:10:49;;;;;;;11.45;8.57;;;23.50;97.60;;;;;;5010818;28;20034;-71
2021/07/17 05:13:35;;;;;;;11.10;7.88;;;23.50;97.30;;;;;;5010793;28;20688;-72
2021/07/17 05:16:21;;;;;;;13.95;8.18;;;23.50;97.20;;;;;;5010676;28;20120;-71
2021/07/17 05:19:07;;;;;;;12.25;7.78;;;23.60;97.20;;;;;;5010046;28;20109;-72
2021/07/17 05:21:52;;;;;;;11.35;8.85;;;23.60;97.10;;;;;;4990430;28;20027;-73
2021/07/17 05:24:38;;;;;;;13.25;9.50;;;23.60;97.10;;;;;;4995947;28;20084;-76
2021/07/17 05:27:24;;;;;;;10.40;8.70;;;23.60;97.20;;;;;;5010918;28;20051;-76
2021/07/17 05:30:10;;;;;;;12.20;9.15;;;23.60;97.30;;;;;;5009705;28;20494;-70
2021/07/17 05:32:56;;;;;;;10.82;8.13;;;23.60;97.30;;;;;;4993608;28;20034;-75
2021/07/17 05:35:42;;;;;;;9.50;7.47;;;23.60;97.50;;;;;;5009780;28;20397;-72
2021/07/17 05:38:28;;;;;;;14.63;9.48;;;23.70;97.50;;;;;;5011170;28;20041;-72
2021/07/17 05:41:14;;;;;;;15.95;10.05;;;23.80;97.50;;;;;;5009563;28;20072;-71
2021/07/17 05:44:00;;;;;;;12.80;8.25;;;23.90;97.40;;;;;;5011486;28;20557;-71
2021/07/17 05:46:45;;;;;;;14.60;9.65;;;23.90;97.40;;;;;;4991900;28;20033;-71
2021/07/17 05:49:31;;;;;;;14.60;9.85;;;23.90;97.40;;;;;;4993497;28;20556;-71
2021/07/17 05:52:17;;;;;;;11.48;9.15;;;23.90;97.30;;;;;;5011434;28;20022;-72
2021/07/17 05:55:04;;;;;;;12.43;10.57;;;23.90;97.40;;;;;;5001917;28;20061;-72
2021/07/17 05:57:48;;;;;;;20.02;11.00;;;23.90;97.50;;;;;;4992284;28;20040;-72
2021/07/17 06:00:32;;;;;;;16.80;11.73;;;23.90;97.50;;;;;;5003569;28;20500;-71
2021/07/17 06:03:17;;;;;;;14.20;11.00;;;24.00;97.50;;;;;;5005987;28;20145;-72
2021/07/17 06:06:01;;;;;;;12.57;10.63;;;24.00;97.60;;;;;;5009691;28;20462;-73
2021/07/17 06:08:45;;;;;;;13.35;11.13;;;24.00;97.50;;;;;;5011604;28;20045;-71
2021/07/17 06:11:29;;;;;;;14.82;11.13;;;24.00;97.70;;;;;;5011396;28;20065;-71
2021/07/17 06:14:13;;;;;;;15.65;11.20;;;24.10;97.60;;;;;;5009461;28;20040;-72
2021/07/17 06:16:57;;;;;;;17.60;11.40;;;24.00;97.80;;;;;;5021493;28;20024;-71
2021/07/17 06:19:42;;;;;;;15.70;10.30;;;24.00;97.80;;;;;;5004609;28;20198;-68
2021/07/17 06:22:27;;;;;;;14.13;10.73;;;24.00;97.90;;;;;;5008636;28;20104;-68
2021/07/17 06:25:11;;;;;;;15.98;11.68;;;24.10;97.90;;;;;;5008168;28;20037;-70
2021/07/17 06:27:55;;;;;;;15.05;10.90;;;24.10;97.80;;;;;;5003606;28;20041;-70
2021/07/17 06:30:20;;;;;;;17.02;11.77;;;24.20;97.90;;;;;;5006054;28;20037;-72
2021/07/17 06:32:46;;;;;;;14.25;11.90;;;24.20;97.90;;;;;;5007923;28;20113;-70
2021/07/17 06:35:12;;;;;;;14.80;11.23;;;24.10;98.00;;;;;;5008518;28;20033;-69
2021/07/17 06:37:41;;;;;;;16.10;12.25;;;24.10;98.10;;;;;;5004212;28;20045;-69
2021/07/17 06:40:11;;;;;;;15.30;12.82;;;24.10;98.10;;;;;;5009822;28;20026;-69
2021/07/17 06:42:43;;;;;;;13.82;11.70;;;24.20;98.00;;;;;;5004924;28;20112;-70
2021/07/17 06:45:10;;;;;;;14.10;10.65;;;24.20;98.10;;;;;;5010111;28;20025;-69
2021/07/17 06:47:35;;;;;;;16.75;12.75;;;24.20;98.00;;;;;;5011298;28;20500;-72
2021/07/17 06:50:02;;;;;;;15.93;12.50;;;24.20;98.00;;;;;;5012244;28;20038;-72
2021/07/17 06:52:27;;;;;;;15.88;11.85;;;24.30;98.10;;;;;;5011695;28;20370;-71
2021/07/17 06:54:53;;;;;;;18.42;12.40;;;24.30;98.10;;;;;;5012443;28;20037;-71
2021/07/17 06:57:18;;;;;;;22.70;12.70;;;24.30;98.10;;;;;;5007711;28;20022;-64
2021/07/17 06:59:44;;;;;;;18.77;13.20;;;24.30;98.10;;;;;;5010113;28;20038;-64
2021/07/17 07:02:09;;;;;;;16.52;12.80;;;24.40;98.10;;;;;;5013661;28;20470;-61
2021/07/17 07:04:35;;;;;;;16.38;12.50;;;24.30;98.10;;;;;;5009910;28;20037;-63
2021/07/17 07:07:19;;;;;;;15.02;13.32;;;24.40;98.20;;;;;;5013326;28;20036;-64
2021/07/17 07:10:05;;;;;;;19.58;13.55;;;24.40;98.10;;;;;;5012468;28;20060;-64
2021/07/17 07:12:49;;;;;;;18.42;13.50;;;24.40;98.10;;;;;;5014239;28;20505;-64
2021/07/17 07:15:33;;;;;;;16.05;12.43;;;24.40;98.20;;;;;;5012998;28;20171;-65
2021/07/17 07:18:18;;;;;;;14.85;11.80;;;24.40;98.20;;;;;;5013748;28;20037;-65
2021/07/17 07:21:02;;;;;;;16.08;12.38;;;24.30;98.30;;;;;;5012425;28;20041;-64
2021/07/17 07:23:45;;;;;;;16.80;13.65;;;24.30;98.30;;;;;;5027220;28;20033;-64
2021/07/17 07:26:30;;;;;;;16.83;13.10;;;24.40;98.40;;;;;;5013094;28;20546;-64
2021/07/17 07:29:14;;;;;;;18.27;13.25;;;24.40;98.40;;;;;;5007229;28;20072;-65
2021/07/17 07:31:39;;;;;;;16.67;13.15;;;24.50;98.40;;;;;;5013673;28;20022;-65
2021/07/17 07:34:05;;;;;;;18.33;12.85;;;24.50;98.40;;;;;;5012415;28;20037;-65
2021/07/17 07:36:31;;;;;;;17.80;12.15;;;24.60;98.40;;;;;;5013247;28;20052;-65
2021/07/17 07:38:56;;;;;;;19.55;12.88;;;24.70;98.40;;;;;;5013619;28;20447;-65
2021/07/17 07:41:22;;;;;;;18.15;12.25;;;24.80;98.20;;;;;;5011693;28;20026;-65
2021/07/17 07:43:47;;;;;;;15.57;12.43;;;24.90;98.20;;;;;;5013649;28;20057;-65
2021/07/17 07:46:14;;;;;;;13.57;10.95;;;24.90;98.20;;;;;;5011230;28;20029;-65
2021/07/17 07:48:41;;;;;;;14.40;11.80;;;25.00;98.00;;;;;;5013293;28;20054;-64
2021/07/17 07:51:08;;;;;;;17.85;11.85;;;25.00;97.80;;;;;;5011747;28;20498;-64
2021/07/17 07:53:34;;;;;;;15.40;11.63;;;24.90;97.70;;;;;;5013693;28;20080;-64
2021/07/17 07:56:02;;;;;;;12.43;11.15;;;24.90;97.80;;;;;;5010765;28;20445;-64
2021/07/17 07:58:28;;;;;;;12.77;10.38;;;24.90;98.00;;;;;;5012290;28;20390;-65
2021/07/17 08:00:53;;;;;;;16.25;12.05;;;24.90;97.80;;;;;;5012102;28;20109;-65
2021/07/17 08:03:19;;;;;;;16.38;12.32;;;25.00;97.80;;;;;;5013261;28;20026;-65
2021/07/17 08:05:44;;;;;;;15.07;12.73;;;25.00;97.90;;;;;;4999401;28;20031;-65
2021/07/17 08:08:10;;;;;;;15.23;10.32;;;25.10;97.80;;;;;;4993652;28;20117;-64
2021/07/17 08:10:35;;;;;;;12.73;11.20;;;25.10;97.80;;;;;;5004646;28;20038;-65
2021/07/17 08:13:00;;;;;;;16.45;11.85;;;25.10;97.70;;;;;;5013287;28;20111;-64
2021/07/17 08:15:26;;;;;;;13.68;12.27;;;25.20;97.60;;;;;;5011273;28;20030;-64
2021/07/17 08:17:51;;;;;;;14.13;11.27;;;25.30;97.50;;;;;;5013048;28;20033;-64
2021/07/17 08:20:17;;;;;;;18.52;12.45;;;25.30;97.40;;;;;;5011308;28;20065;-64
2021/07/17 08:22:43;;;;;;;15.30;11.02;;;25.40;97.50;;;;;;5011709;28;20022;-65
2021/07/17 08:25:09;;;;;;;17.30;11.27;;;25.50;97.50;;;;;;5005627;28;20382;-65
2021/07/17 08:27:35;;;;;;;13.40;10.82;;;25.60;97.30;;;;;;5028089;28;20050;-65
2021/07/17 08:30:01;;;;;;;15.15;9.70;;;25.70;97.10;;;;;;5010826;28;20485;-65
2021/07/17 08:32:26;;;;;;;17.30;11.85;;;25.80;97.00;;;;;;5012932;28;20121;-65
2021/07/17 08:34:52;;;;;;;11.85;10.65;;;25.90;96.90;;;;;;5026581;28;20536;-65
2021/07/17 08:37:19;;;;;;;15.25;10.82;;;26.00;96.80;;;;;;5012692;28;20030;-65
2021/07/17 08:39:45;;;;;;;15.90;11.68;;;26.00;96.90;;;;;;5009452;28;20466;-65
2021/07/17 08:42:15;;;;;;;11.75;10.35;;;26.00;96.60;;;;;;5012421;28;20448;-65
2021/07/17 08:44:41;;;;;;;13.00;10.40;;;26.00;96.40;;;;;;5011021;28;20117;-65
2021/07/17 08:47:08;;;;;;;12.40;10.63;;;26.00;96.40;;;;;;5012783;28;20053;-65
2021/07/17 08:49:36;;;;;;;12.32;10.48;;;25.90;96.30;;;;;;5023111;28;20076;-65
2021/07/17 08:52:03;;;;;;;11.60;10.07;;;25.90;96.50;;;;;;5012145;28;20034;-65
2021/07/17 08:54:29;;;;;;;14.15;10.60;;;25.90;96.40;;;;;;5026241;28;20428;-65
2021/07/17 08:56:55;;;;;;;13.80;11.30;;;25.80;96.40;;;;;;5012344;28;20072;-65
2021/07/17 08:59:20;;;;;;;11.25;9.75;;;25.80;96.70;;;;;;5010037;28;20034;-65
2021/07/17 09:01:48;;;;;;;13.95;11.18;;;25.70;96.50;;;;;;5012188;28;20030;-65
2021/07/17 09:04:14;;;;;;;12.43;10.32;;;25.70;96.50;;;;;;5010698;28;20083;-65
2021/07/17 09:06:39;;;;;;;14.00;11.15;;;25.70;96.50;;;;;;5012027;28;20112;-65
2021/07/17 09:09:06;;;;;;;19.67;11.23;;;25.60;96.60;;;;;;5010656;28;20084;-65
2021/07/17 09:11:37;;;;;;;13.40;11.15;;;25.70;96.60;;;;;;5021283;28;20036;-65
2021/07/17 09:14:03;;;;;;;12.75;11.23;;;25.60;96.50;;;;;;5023142;28;20104;-65
2021/07/17 09:16:30;;;;;;;14.38;11.18;;;25.60;96.50;;;;;;5010218;28;20018;-65
2021/07/17 09:19:14;;;;;;;13.32;11.20;;;25.60;96.60;;;;;;4999135;28;20037;-65
2021/07/17 09:21:59;;;;;;;13.57;10.57;;;25.70;96.60;;;;;;5011760;28;20029;-65
2021/07/17 09:25:06;;;;;;;13.73;11.00;;;25.70;96.40;;;;;;5009389;28;20100;-65
2021/07/17 09:27:50;;;;;;;12.15;10.15;;;25.80;96.50;;;;;;4992416;28;20100;-65
2021/07/17 09:30:35;;;;;;;16.63;11.05;;;25.80;96.30;;;;;;5003431;28;20157;-65
2021/07/17 09:33:19;;;;;;;;;;;25.80;96.20;;;;;;5012126;28;20048;-65
2021/07/17 09:36:03;;;;;;;11.60;10.25;;;25.80;96.10;;;;;;5010157;28;19911;-65
2021/07/17 09:38:51;;;;;;;16.63;11.65;;;25.80;96.30;;;;;;5011997;28;20397;-65
2021/07/17 09:41:35;;;;;;;12.10;10.07;;;25.80;96.40;;;;;;5009630;28;20036;-65
2021/07/17 09:44:02;;;;;;;12.52;11.23;;;25.90;96.30;;;;;;5014022;28;20113;-65
2021/07/17 09:46:30;;;;;;;14.30;11.13;;;25.80;96.30;;;;;;5011294;28;20120;-65
2021/07/17 09:48:58;;;;;;;13.93;11.40;;;25.80;96.20;;;;;;4994642;28;20100;-66
2021/07/17 09:51:43;;;;;;;12.00;10.65;;;25.80;96.40;;;;;;5004733;28;20098;-65
2021/07/17 09:54:26;;;;;;;17.17;11.25;;;25.90;96.20;;;;;;4994658;28;20044;-66
2021/07/17 09:57:10;;;;;;;11.82;10.43;;;25.90;96.00;;;;;;5011859;28;20056;-65
2021/07/17 10:00:10;;;;;;;14.05;11.02;;;25.90;96.10;;;;;;5009624;28;20069;-65
2021/07/17 10:02:55;;;;;;;13.50;11.15;;;25.80;96.00;;;;;;5010937;28;20041;-65
2021/07/17 10:05:41;;;;;;;12.13;10.75;;;25.70;96.10;;;;;;5010078;28;20421;-64
2021/07/17 10:08:32;;;;;;;16.92;11.57;;;25.80;96.20;;;;;;5011565;28;20432;-65
2021/07/17 10:11:28;;;;;;;12.75;10.68;;;25.80;96.20;;;;;;5012514;28;20045;-65
2021/07/17 10:14:18;;;;;;;13.02;10.40;;;25.90;96.10;;;;;;5014028;28;20037;-66
2021/07/17 10:17:11;;;;;;;13.88;10.88;;;26.00;96.20;;;;;;5028516;28;20036;-65
2021/07/17 10:19:55;;;;;;;13.52;10.63;;;26.30;96.00;;;;;;5025492;28;20053;-65
2021/07/17 10:22:40;;;;;;;12.25;10.95;;;26.40;96.00;;;;;;5015459;28;20104;-65
2021/07/17 10:25:25;;;;;;;14.43;11.40;;;26.60;95.90;;;;;;5013828;28;20092;-65
2021/07/17 10:28:10;;;;;;;13.32;11.45;;;26.70;95.80;;;;;;5015500;28;20037;-65
2021/07/17 10:30:54;;;;;;;13.27;10.68;;;27.00;95.40;;;;;;5013584;28;20048;-65
2021/07/17 10:33:39;;;;;;;12.52;11.23;;;27.10;95.00;;;;;;5021655;28;20095;-66
2021/07/17 10:36:24;;;;;;;13.00;11.32;;;27.10;94.60;;;;;;4996461;28;20050;-65
2021/07/17 10:39:10;;;;;;;12.45;10.93;;;27.10;94.50;;;;;;5008939;28;20033;-65
2021/07/17 10:41:39;;;;;;;13.68;11.40;;;27.10;94.50;;;;;;5012497;28;20036;-65
2021/07/17 10:44:05;;;;;;;13.52;11.65;;;27.10;94.70;;;;;;5010430;28;20018;-65
2021/07/17 10:46:37;;;;;;;12.55;10.88;;;27.10;94.80;;;;;;5012617;28;20482;-65
2021/07/17 10:49:06;;;;;;;12.35;10.95;;;27.20;94.90;;;;;;5009529;28;20053;-64
2021/07/17 10:51:37;;;;;;;11.68;10.48;;;27.30;94.60;;;;;;5012732;28;20026;-64
2021/07/17 10:54:10;;;;;;;13.82;11.25;;;27.40;94.20;;;;;;5007419;28;20385;-63
2021/07/17 10:56:39;;;;;;;15.20;10.90;;;27.50;93.70;;;;;;5011758;28;20105;-64
2021/07/17 10:59:26;;;;;;;15.95;11.13;;;27.50;94.00;;;;;;5014155;28;20083;-63
2021/07/17 11:01:55;;;;;;;11.38;10.18;;;27.50;93.80;;;;;;5003088;28;20037;-63
2021/07/17 11:04:45;;;;;;;17.42;12.27;;;27.60;93.50;;;;;;5010089;28;20096;-63
2021/07/17 11:07:32;;;;;;;14.60;10.95;;;27.60;93.50;;;;;;5009884;28;20128;-64
2021/07/17 11:10:10;;;;;;;14.27;11.02;;;27.50;93.00;;;;;;5011442;28;20042;-64
2021/07/17 11:12:50;;;;;;;12.82;11.32;;;27.50;93.20;;;;;;5011571;28;20037;-64
2021/07/17 11:15:17;;;;;;;12.82;10.82;;;27.60;93.40;;;;;;5010154;28;20033;-64
2021/07/17 11:17:45;;;;;;;15.27;11.52;;;27.60;93.30;;;;;;5011537;28;20033;-63
2021/07/17 11:20:31;;;;;;;13.60;11.63;;;27.70;93.30;;;;;;5011573;28;20025;-63
2021/07/17 11:23:01;;;;;;;16.10;11.70;;;27.70;93.10;;;;;;5007864;28;20033;-63
2021/07/17 11:25:27;;;;;;;14.98;12.27;;;27.60;93.30;;;;;;5011192;28;20108;-63
2021/07/17 11:27:52;;;;;;;12.02;10.68;;;27.60;93.50;;;;;;5010492;28;20187;-63
2021/07/17 11:30:19;;;;;;;14.95;10.50;;;27.70;93.20;;;;;;5008718;28;20030;-64
2021/07/17 11:33:03;;;;;;;12.35;11.02;;;27.80;93.20;;;;;;5011920;28;20026;-64
2021/07/17 11:35:29;;;;;;;;;;;27.90;92.80;;;;;;5010414;28;20061;-64
2021/07/17 11:37:55;;;;;;;11.57;9.50;;;28.00;93.20;;;;;;5010924;28;19975;-64
2021/07/17 11:40:21;;;;;;;12.32;11.02;;;28.00;92.40;;;;;;5009302;28;20180;-65
2021/07/17 11:42:46;;;;;;;12.95;10.25;;;28.10;92.30;;;;;;5007133;28;20061;-64
2021/07/17 11:45:12;;;;;;;11.13;9.77;;;28.10;91.60;;;;;;5004102;28;20419;-64
2021/07/17 11:47:38;;;;;;;11.93;10.63;;;28.10;91.60;;;;;;5017667;28;20037;-64
2021/07/17 11:50:05;;;;;;;12.70;11.05;;;28.00;91.60;;;;;;5012544;28;20038;-63
2021/07/17 11:52:33;;;;;;;11.43;10.13;;;27.90;91.50;;;;;;5009256;28;20018;-63
2021/07/17 11:55:19;;;;;;;11.32;10.13;;;27.90;91.20;;;;;;5009553;28;20037;-64
2021/07/17 11:57:45;;;;;;;12.27;9.70;;;27.80;91.30;;;;;;5009946;28;20030;-64
2021/07/17 12:00:20;;;;;;;12.80;10.52;;;27.90;91.70;;;;;;5013328;28;20034;-64
2021/07/17 12:02:54;;;;;;;12.35;9.77;;;28.00;91.70;;;;;;5010391;28;20084;-64
2021/07/17 12:05:22;;;;;;;10.98;9.55;;;28.10;91.40;;;;;;5007510;28;20040;-64
2021/07/17 12:07:48;;;;;;;10.18;9.02;;;28.10;91.40;;;;;;5009773;28;20026;-63
2021/07/17 12:10:16;;;;;;;10.80;9.55;;;28.20;91.00;;;;;;5004021;28;20034;-63
2021/07/17 12:12:46;;;;;;;11.40;10.18;;;28.20;91.10;;;;;;5006233;28;20053;-63
2021/07/17 12:15:26;;;;;;;11.77;10.50;;;28.20;90.90;;;;;;5003396;28;20060;-63
2021/07/17 12:17:56;;;;;;;10.60;9.50;;;28.30;90.80;;;;;;5003541;28;20037;-64
2021/07/17 12:20:25;;;;;;;10.77;9.52;;;28.30;90.20;;;;;;5008759;28;20037;-63
2021/07/17 12:23:26;;;;;;;11.40;10.20;;;28.30;90.00;;;;;;5010662;28;20055;-63
2021/07/17 12:26:17;;;;;;;12.27;9.40;;;28.40;89.90;;;;;;5022383;28;20436;-63
2021/07/17 12:29:01;;;;;;;11.10;9.65;;;28.60;90.20;;;;;;4999499;28;20173;-63
2021/07/17 12:32:04;;;;;;;10.68;8.45;;;28.70;89.50;;;;;;5006437;28;20113;-64
2021/07/17 12:34:58;;;;;;;9.93;8.57;;;28.80;88.70;;;;;;5005312;28;20525;-64
2021/07/17 12:37:42;;;;;;;10.73;8.80;;;28.80;87.20;;;;;;5010470;28;20068;-64
2021/07/17 12:40:26;;;;;;;10.27;9.13;;;28.70;87.60;;;;;;5004899;28;20068;-64
2021/07/17 12:43:10;;;;;;;11.25;9.40;;;28.60;87.10;;;;;;5005914;28;20076;-64
2021/07/17 12:46:02;;;;;;;10.35;9.27;;;28.60;86.60;;;;;;5013152;28;20040;-64
2021/07/17 12:48:48;;;;;;;11.23;9.63;;;28.50;85.90;;;;;;4992876;28;20561;-64
2021/07/17 12:51:40;;;;;;;11.13;9.10;;;28.60;86.70;;;;;;4993093;28;20118;-64
2021/07/17 12:54:28;;;;;;;9.55;8.52;;;28.80;86.50;;;;;;5001296;28;20084;-64
2021/07/17 12:57:12;;;;;;;11.82;9.57;;;28.80;85.90;;;;;;5012463;28;20029;-64
2021/07/17 12:59:57;;;;;;;10.55;9.35;;;28.80;85.40;;;;;;5012383;28;20548;-64
2021/07/17 13:02:41;;;;;;;11.93;9.23;;;28.90;85.10;;;;;;5012665;28;20049;-64
2021/07/17 13:05:46;;;;;;;10.50;9.45;;;28.90;84.70;;;;;;5012392;28;20453;-64
2021/07/17 13:08:33;;;;;;;12.38;9.93;;;28.90;84.00;;;;;;5011790;28;20037;-64
2021/07/17 13:11:18;;;;;;;10.63;9.52;;;29.00;83.00;;;;;;5012108;28;20045;-64
2021/07/17 13:14:03;;;;;;;10.27;8.90;;;29.10;83.00;;;;;;5012180;28;20144;-64
2021/07/17 13:16:47;;;;;;;10.95;8.85;;;29.10;81.90;;;;;;5011327;28;20414;-64
2021/07/17 13:19:31;;;;;;;11.98;9.35;;;29.10;81.00;;;;;;5017382;28;20571;-64
2021/07/17 13:22:15;;;;;;;10.70;9.15;;;29.10;81.20;;;;;;5010910;28;20088;-64
2021/07/17 13:25:11;;;;;;;9.98;8.98;;;29.10;80.40;;;;;;5011975;28;20032;-64
2021/07/17 13:28:08;;;;;;;11.15;9.77;;;29.10;81.20;;;;;;4999012;28;20041;-64
2021/07/17 13:30:53;;;;;;;9.60;8.63;;;29.20;80.70;;;;;;5011098;28;20076;-64
2021/07/17 13:33:37;;;;;;;9.82;8.75;;;29.30;80.20;;;;;;5011191;28;20064;-63
2021/07/17 13:36:22;;;;;;;10.13;9.02;;;29.30;79.60;;;;;;5009546;28;20052;-63
2021/07/17 13:39:06;;;;;;;10.35;9.23;;;29.50;79.70;;;;;;5008787;28;20056;-65